createdAt,value
2023-10-26T00:02:10.368Z,15.50
2023-10-26T00:04:56.874Z,15.90
2023-10-26T00:07:43.433Z,16.20
2023-10-26T00:10:29.951Z,14.60
2023-10-26T00:13:16.826Z,14.50
2023-10-26T00:16:04.593Z,12.70
2023-10-26T00:18:51.375Z,13.50
2023-10-26T00:21:37.924Z,15.80
2023-10-26T00:24:24.349Z,15.20
2023-10-26T00:27:11.026Z,16.00
2023-10-26T00:29:57.777Z,15.50
2023-10-26T00:32:44.462Z,13.70
2023-10-26T00:35:31.207Z,14.20
2023-10-26T00:38:17.773Z,14.10
2023-10-26T00:41:04.766Z,15.60
2023-10-26T00:43:51.356Z,15.80
2023-10-26T00:46:37.925Z,13.60
2023-10-26T00:49:24.493Z,11.20
2023-10-26T00:52:11.945Z,13.10
2023-10-26T00:54:58.958Z,15.10
2023-10-26T00:57:45.905Z,16.10
2023-10-26T01:00:35.876Z,14.50
2023-10-26T01:03:24.743Z,15.40
2023-10-26T01:06:11.374Z,14.20
2023-10-26T01:08:58.137Z,14.30
2023-10-26T01:11:45.794Z,12.20
2023-10-26T01:14:32.933Z,13.70
2023-10-26T01:17:19.703Z,15.10
2023-10-26T01:20:07.661Z,13.50
2023-10-26T01:22:53.900Z,11.70
2023-10-26T01:25:40.905Z,10.50
2023-10-26T01:28:27.766Z,12.10
2023-10-26T01:31:18.046Z,8.80
2023-10-26T01:34:05.052Z,12.30
2023-10-26T01:36:52.025Z,11.60
2023-10-26T01:39:39.873Z,9.70
2023-10-26T01:42:26.333Z,9.40
2023-10-26T01:45:12.907Z,8.10
2023-10-26T01:48:01.357Z,9.80
2023-10-26T01:50:47.594Z,12.70
2023-10-26T01:53:34.271Z,9.40
2023-10-26T01:56:21.032Z,8.60
2023-10-26T01:59:08.082Z,9.60
2023-10-26T02:01:54.607Z,12.30
2023-10-26T02:04:41.250Z,10.70
2023-10-26T02:07:27.637Z,10.30
2023-10-26T02:10:15.920Z,11.60
2023-10-26T02:13:02.381Z,13.70
2023-10-26T02:15:49.295Z,13.40
2023-10-26T02:18:36.118Z,8.40
2023-10-26T02:21:22.548Z,13.20
2023-10-26T02:24:09.651Z,13.50
2023-10-26T02:26:55.998Z,16.00
2023-10-26T02:29:42.312Z,14.20
2023-10-26T02:32:29.003Z,13.00
2023-10-26T02:35:16.510Z,15.00
2023-10-26T02:38:03.603Z,14.10
2023-10-26T02:40:50.150Z,12.20
2023-10-26T02:43:36.892Z,12.00
2023-10-26T02:46:24.884Z,21.00
2023-10-26T02:49:11.351Z,12.70
2023-10-26T02:51:58.751Z,14.20
2023-10-26T02:54:46.784Z,15.80
2023-10-26T02:57:33.644Z,14.30
2023-10-26T03:00:20.752Z,12.10
2023-10-26T03:03:07.576Z,15.30
2023-10-26T03:05:54.915Z,15.40
2023-10-26T03:08:41.320Z,12.20
2023-10-26T03:11:28.797Z,11.60
2023-10-26T03:14:16.104Z,12.70
2023-10-26T03:17:03.298Z,12.70
2023-10-26T03:19:49.780Z,16.20
2023-10-26T03:22:36.173Z,14.80
2023-10-26T03:25:22.865Z,15.40
2023-10-26T03:28:10.452Z,14.70
2023-10-26T03:30:57.779Z,12.50
2023-10-26T03:33:44.946Z,13.30
2023-10-26T03:36:31.738Z,15.00
2023-10-26T03:39:18.384Z,14.10
2023-10-26T03:42:05.334Z,14.50
2023-10-26T03:44:51.891Z,14.50
2023-10-26T03:47:38.226Z,17.10
2023-10-26T03:50:25.024Z,16.60
2023-10-26T03:53:11.506Z,17.80
2023-10-26T03:55:58.026Z,16.80
2023-10-26T03:58:44.399Z,18.40
2023-10-26T04:01:31.011Z,16.40
2023-10-26T04:04:17.646Z,15.70
2023-10-26T04:07:04.376Z,21.40
2023-10-26T04:09:50.539Z,24.60
2023-10-26T04:12:37.162Z,17.10
2023-10-26T04:15:23.952Z,21.60
2023-10-26T04:18:10.928Z,15.20
2023-10-26T04:20:57.971Z,23.70
2023-10-26T04:23:45.064Z,25.70
2023-10-26T04:26:32.044Z,24.60
2023-10-26T04:29:18.350Z,21.50
2023-10-26T04:32:05.754Z,20.70
2023-10-26T04:34:52.257Z,21.60
2023-10-26T04:37:38.886Z,15.70
2023-10-26T04:40:25.489Z,18.40
2023-10-26T04:43:12.059Z,20.10
2023-10-26T04:45:58.535Z,23.90
2023-10-26T04:48:45.657Z,19.60
2023-10-26T04:51:33.601Z,19.50
2023-10-26T04:54:20.490Z,25.60
2023-10-26T04:57:07.043Z,23.50
2023-10-26T04:59:53.968Z,19.70
2023-10-26T05:02:42.123Z,20.70
2023-10-26T05:05:28.868Z,22.70
2023-10-26T05:08:15.298Z,18.00
2023-10-26T05:11:01.993Z,19.80
2023-10-26T05:13:50.143Z,17.90
2023-10-26T05:16:38.079Z,22.20
2023-10-26T05:19:24.750Z,19.30
2023-10-26T05:22:11.293Z,16.50
2023-10-26T05:24:57.543Z,17.30
2023-10-26T05:27:44.692Z,19.20
2023-10-26T05:30:31.487Z,17.40
2023-10-26T05:33:17.837Z,15.70
2023-10-26T05:36:05.407Z,20.40
2023-10-26T05:38:51.655Z,19.40
2023-10-26T05:41:38.251Z,18.70
2023-10-26T05:44:24.871Z,18.80
2023-10-26T05:47:11.627Z,23.10
2023-10-26T05:49:58.034Z,21.50
2023-10-26T05:52:44.568Z,15.80
2023-10-26T05:55:31.249Z,22.50
2023-10-26T05:58:17.879Z,24.00
2023-10-26T06:01:05.751Z,21.60
2023-10-26T06:03:52.214Z,25.80
2023-10-26T06:06:38.985Z,18.70
2023-10-26T06:09:25.762Z,17.10
2023-10-26T06:12:13.494Z,22.30
2023-10-26T06:15:00.101Z,26.00
2023-10-26T06:17:46.915Z,20.50
2023-10-26T06:20:33.440Z,24.00
2023-10-26T06:23:19.816Z,24.70
2023-10-26T06:26:06.920Z,20.50
2023-10-26T06:28:54.460Z,26.40
2023-10-26T06:31:41.135Z,27.00
2023-10-26T06:34:27.913Z,26.90
2023-10-26T06:37:14.449Z,28.70
2023-10-26T06:40:00.882Z,33.50
2023-10-26T06:42:47.416Z,27.80
2023-10-26T06:45:34.651Z,29.50
2023-10-26T06:48:21.233Z,26.30
2023-10-26T06:51:08.113Z,28.50
2023-10-26T06:53:54.939Z,31.80
2023-10-26T06:56:41.631Z,27.00
2023-10-26T06:59:28.381Z,29.50
2023-10-26T07:02:14.975Z,30.00
2023-10-26T07:05:03.563Z,31.00
2023-10-26T07:07:50.188Z,30.00
2023-10-26T07:10:39.984Z,30.20
2023-10-26T07:13:29.295Z,28.20
2023-10-26T07:16:16.142Z,30.60
2023-10-26T07:19:02.620Z,27.20
2023-10-26T07:21:49.094Z,26.90
2023-10-26T07:24:36.435Z,29.10
2023-10-26T07:27:22.977Z,25.50
2023-10-26T07:30:10.639Z,28.80
2023-10-26T07:32:57.094Z,22.20
2023-10-26T07:35:51.776Z,27.50
2023-10-26T07:38:38.283Z,23.90
2023-10-26T07:42:07.053Z,27.10
2023-10-26T07:44:35.001Z,29.70
2023-10-26T07:47:22.913Z,26.90
2023-10-26T07:50:09.724Z,23.50
2023-10-26T07:52:56.192Z,29.70
2023-10-26T07:55:42.904Z,26.50
2023-10-26T07:58:31.183Z,21.90
2023-10-26T08:01:18.005Z,22.50
2023-10-26T08:04:04.898Z,25.50
2023-10-26T08:06:51.713Z,28.00
2023-10-26T08:09:38.371Z,25.70
2023-10-26T08:12:25.004Z,27.90
2023-10-26T08:16:10.602Z,25.00
2023-10-26T08:18:18.231Z,26.70
2023-10-26T08:21:06.639Z,27.40
2023-10-26T08:23:53.116Z,28.80
2023-10-26T08:26:39.730Z,31.70
2023-10-26T08:29:28.992Z,36.00
2023-10-26T08:32:16.513Z,32.90
2023-10-26T08:35:04.569Z,30.60
2023-10-26T08:37:51.357Z,30.70
2023-10-26T08:40:38.582Z,31.80
2023-10-26T08:43:25.466Z,31.70
2023-10-26T08:46:17.727Z,34.60
2023-10-26T08:49:07.842Z,38.20
2023-10-26T08:51:55.068Z,36.90
2023-10-26T08:54:41.665Z,31.20
2023-10-26T08:57:28.493Z,33.50
2023-10-26T09:00:16.562Z,36.90
2023-10-26T09:03:04.334Z,35.30
2023-10-26T09:05:55.644Z,37.00
2023-10-26T09:08:42.801Z,34.90
2023-10-26T09:11:29.520Z,30.70
2023-10-26T09:14:20.300Z,32.20
2023-10-26T09:17:06.871Z,28.20
2023-10-26T09:19:53.493Z,30.90
2023-10-26T09:22:41.624Z,28.40
2023-10-26T09:25:29.570Z,23.90
2023-10-26T09:28:16.582Z,27.70
2023-10-26T09:31:06.022Z,26.30
2023-10-26T09:33:52.813Z,32.40
2023-10-26T09:36:39.567Z,28.20
2023-10-26T09:39:30.909Z,32.80
2023-10-26T09:42:17.724Z,31.00
2023-10-26T09:45:04.746Z,26.50
2023-10-26T09:47:51.240Z,27.50
2023-10-26T09:50:41.584Z,26.70
2023-10-26T09:53:33.661Z,25.70
2023-10-26T09:56:26.196Z,27.70
2023-10-26T09:59:14.008Z,25.40
2023-10-26T10:02:14.126Z,21.50
2023-10-26T10:05:01.199Z,23.50
2023-10-26T10:07:47.763Z,14.80
2023-10-26T10:10:35.522Z,25.30
2023-10-26T10:13:38.329Z,21.40
2023-10-26T10:16:37.238Z,24.50
2023-10-26T10:19:27.375Z,27.40
2023-10-26T10:22:37.997Z,24.90
2023-10-26T10:25:50.137Z,21.00
2023-10-26T10:28:42.063Z,24.70
2023-10-26T10:31:39.078Z,26.50
2023-10-26T10:34:34.939Z,25.80
2023-10-26T10:37:25.087Z,25.00
2023-10-26T10:40:16.154Z,22.40
2023-10-26T10:43:02.456Z,26.70
2023-10-26T10:45:49.433Z,22.50
2023-10-26T10:48:37.209Z,25.90
2023-10-26T10:51:30.712Z,26.60
2023-10-26T10:54:34.875Z,26.70
2023-10-26T10:57:30.917Z,25.20
2023-10-26T11:00:17.454Z,22.70
2023-10-26T11:03:04.380Z,25.90
2023-10-26T11:05:53.197Z,24.50
2023-10-26T11:08:39.950Z,23.70
2023-10-26T11:11:27.850Z,23.90
2023-10-26T11:14:14.240Z,20.00
2023-10-26T11:17:01.404Z,21.70
2023-10-26T11:19:48.875Z,25.60
2023-10-26T11:22:35.604Z,21.20
2023-10-26T11:25:28.531Z,22.90
2023-10-26T11:28:15.143Z,18.70
2023-10-26T11:31:02.107Z,21.90
2023-10-26T11:33:48.906Z,16.90
2023-10-26T11:36:39.023Z,18.90
2023-10-26T11:39:26.268Z,19.30
2023-10-26T11:42:13.065Z,20.00
2023-10-26T11:44:59.810Z,18.20
2023-10-26T11:47:55.522Z,18.30
2023-10-26T11:50:42.143Z,16.20
2023-10-26T11:53:30.307Z,20.10
2023-10-26T11:56:16.922Z,16.80
2023-10-26T11:59:03.184Z,18.50
2023-10-26T12:01:49.762Z,15.80
2023-10-26T12:04:36.342Z,17.20
2023-10-26T12:07:23.114Z,18.10
2023-10-26T12:10:10.370Z,17.90
2023-10-26T12:13:00.223Z,22.50
2023-10-26T12:15:46.588Z,17.10
2023-10-26T12:18:36.332Z,22.40
2023-10-26T12:21:22.901Z,21.50
2023-10-26T12:24:09.723Z,21.90
2023-10-26T12:26:57.317Z,34.20
2023-10-26T12:29:44.773Z,25.30
2023-10-26T12:32:32.214Z,20.20
2023-10-26T12:35:18.688Z,19.00
2023-10-26T12:38:05.097Z,19.50
2023-10-26T12:40:51.556Z,17.90
2023-10-26T12:43:38.035Z,19.70
2023-10-26T12:46:24.502Z,18.70
2023-10-26T12:49:11.091Z,18.60
2023-10-26T12:51:57.703Z,17.90
2023-10-26T12:54:44.487Z,16.00
2023-10-26T12:57:31.577Z,17.70
2023-10-26T13:00:18.174Z,18.10
2023-10-26T13:03:04.922Z,16.10
2023-10-26T13:05:52.959Z,19.20
2023-10-26T13:08:40.444Z,16.60
2023-10-26T13:11:27.073Z,27.10
2023-10-26T13:14:13.771Z,20.60
2023-10-26T13:17:00.274Z,20.70
2023-10-26T13:19:47.143Z,33.60
2023-10-26T13:22:33.865Z,22.50
2023-10-26T13:25:20.467Z,22.80
2023-10-26T13:28:06.950Z,66.10
2023-10-26T13:30:54.225Z,54.50
2023-10-26T13:33:41.898Z,34.70
2023-10-26T13:36:28.313Z,21.40
2023-10-26T13:39:16.042Z,20.60
2023-10-26T13:42:02.681Z,18.60
2023-10-26T13:44:49.891Z,18.40
2023-10-26T13:47:36.962Z,14.10
2023-10-26T13:50:23.744Z,17.90
2023-10-26T13:53:10.213Z,20.00
2023-10-26T13:55:56.816Z,20.20
2023-10-26T13:58:43.409Z,16.30
2023-10-26T14:01:30.180Z,23.50
2023-10-26T14:04:17.103Z,22.60
2023-10-26T14:07:05.413Z,19.30
2023-10-26T14:09:53.407Z,14.40
2023-10-26T14:12:39.674Z,20.70
2023-10-26T14:15:26.602Z,21.10
2023-10-26T14:18:13.232Z,20.90
2023-10-26T14:20:59.807Z,18.70
2023-10-26T14:23:46.542Z,18.00
2023-10-26T14:26:33.042Z,19.20
2023-10-26T14:29:19.280Z,19.80
2023-10-26T14:32:05.944Z,21.60
2023-10-26T14:34:52.551Z,17.10
2023-10-26T14:37:39.219Z,13.70
2023-10-26T14:40:26.743Z,23.80
2023-10-26T14:43:16.659Z,23.00
2023-10-26T14:46:03.272Z,23.90
2023-10-26T14:48:50.039Z,22.60
2023-10-26T14:51:36.979Z,23.60
2023-10-26T14:54:25.338Z,24.40
2023-10-26T14:57:11.906Z,22.50
2023-10-26T14:59:58.382Z,20.00
2023-10-26T15:02:45.577Z,23.90
2023-10-26T15:05:35.699Z,20.70
2023-10-26T15:08:22.552Z,20.80
2023-10-26T15:11:22.995Z,24.40
2023-10-26T15:14:11.852Z,11.20
2023-10-26T15:16:58.125Z,25.70
2023-10-26T15:19:44.710Z,27.00
2023-10-26T15:22:31.618Z,20.90
2023-10-26T15:25:18.239Z,19.00
2023-10-26T15:28:05.203Z,27.10
2023-10-26T15:30:52.218Z,18.30
2023-10-26T15:33:39.248Z,20.20
2023-10-26T15:36:26.450Z,21.70
2023-10-26T15:39:14.697Z,17.10
2023-10-26T15:42:00.995Z,18.00
2023-10-26T15:44:53.095Z,21.20
2023-10-26T15:47:40.692Z,22.20
2023-10-26T15:50:29.759Z,23.40
2023-10-26T15:53:16.278Z,22.10
2023-10-26T15:56:04.056Z,20.80
2023-10-26T15:58:53.582Z,18.80
2023-10-26T16:01:40.171Z,18.60
2023-10-26T16:04:29.534Z,20.40
2023-10-26T16:07:15.997Z,22.30
2023-10-26T16:10:45.040Z,23.60
2023-10-26T16:13:57.172Z,21.90
2023-10-26T16:16:43.576Z,24.30
2023-10-26T16:19:30.584Z,16.80
2023-10-26T16:22:18.289Z,20.60
2023-10-26T16:25:05.677Z,24.10
2023-10-26T16:27:52.409Z,19.90
2023-10-26T16:30:41.040Z,25.20
2023-10-26T16:33:28.425Z,22.30
2023-10-26T16:36:14.762Z,20.20
2023-10-26T16:39:00.926Z,20.70
2023-10-26T16:41:47.748Z,18.20
2023-10-26T16:44:34.396Z,20.00
2023-10-26T16:47:21.547Z,20.10
2023-10-26T16:50:08.537Z,26.90
2023-10-26T16:52:55.115Z,29.60
2023-10-26T16:55:41.432Z,26.60
2023-10-26T16:58:28.732Z,31.80
2023-10-26T17:01:15.590Z,30.70
2023-10-26T17:04:02.200Z,33.40
2023-10-26T17:06:49.135Z,29.30
2023-10-26T17:09:35.785Z,33.40
2023-10-26T17:12:22.501Z,32.00
2023-10-26T17:15:10.946Z,36.20
2023-10-26T17:17:57.331Z,33.70
2023-10-26T17:20:43.939Z,29.70
2023-10-26T17:23:30.488Z,29.70
2023-10-26T17:26:17.234Z,35.40
2023-10-26T17:29:04.068Z,30.90
2023-10-26T17:31:50.823Z,52.70
2023-10-26T17:34:37.359Z,59.40
2023-10-26T17:37:24.307Z,44.90
2023-10-26T17:40:12.967Z,30.70
2023-10-26T17:42:59.630Z,30.30
2023-10-26T17:45:55.918Z,34.30
2023-10-26T17:48:42.472Z,47.20
2023-10-26T17:51:30.571Z,39.00
2023-10-26T17:54:17.022Z,29.00
2023-10-26T17:57:04.360Z,35.30
2023-10-26T17:59:50.922Z,27.60
2023-10-26T18:02:38.222Z,25.10
2023-10-26T18:05:24.927Z,29.00
2023-10-26T18:08:11.719Z,28.50
2023-10-26T18:10:59.551Z,30.20
2023-10-26T18:13:46.037Z,22.00
2023-10-26T18:16:32.884Z,32.00
2023-10-26T18:19:19.256Z,16.90
2023-10-26T18:22:05.851Z,23.20
2023-10-26T18:24:55.728Z,30.30
2023-10-26T18:27:42.499Z,30.20
2023-10-26T18:30:29.178Z,27.10
2023-10-26T18:33:15.584Z,24.70
2023-10-26T18:36:04.489Z,21.70
2023-10-26T18:38:51.211Z,21.90
2023-10-26T18:41:38.327Z,24.30
2023-10-26T18:44:25.842Z,26.50
2023-10-26T18:47:12.800Z,22.30
2023-10-26T18:49:59.829Z,18.20
2023-10-26T18:52:47.050Z,21.10
2023-10-26T18:55:36.668Z,18.30
2023-10-26T18:58:24.720Z,16.70
2023-10-26T19:01:11.954Z,15.80
2023-10-26T19:04:02.620Z,16.00
2023-10-26T19:06:52.167Z,17.90
2023-10-26T19:09:39.026Z,18.60
2023-10-26T19:12:25.899Z,14.80
2023-10-26T19:15:12.813Z,12.50
2023-10-26T19:18:00.364Z,13.20
2023-10-26T19:20:46.873Z,12.20
2023-10-26T19:23:33.511Z,13.20
2023-10-26T19:26:20.533Z,13.70
2023-10-26T19:29:07.103Z,14.60
2023-10-26T19:31:53.988Z,12.30
2023-10-26T19:34:40.805Z,12.70
2023-10-26T19:37:27.764Z,13.40
2023-10-26T19:40:14.630Z,17.10
2023-10-26T19:43:01.444Z,14.30
2023-10-26T19:45:48.264Z,14.70
2023-10-26T19:48:34.848Z,13.70
2023-10-26T19:51:21.457Z,11.00
2023-10-26T19:54:08.131Z,11.00
2023-10-26T19:56:55.647Z,10.60
2023-10-26T19:59:46.862Z,9.70
2023-10-26T20:02:33.390Z,10.00
2023-10-26T20:05:20.098Z,12.80
2023-10-26T20:08:06.788Z,14.00
2023-10-26T20:11:03.241Z,13.70
2023-10-26T20:13:55.519Z,9.30
2023-10-26T20:16:41.907Z,9.50
2023-10-26T20:19:28.960Z,11.80
2023-10-26T20:22:16.292Z,11.40
2023-10-26T20:25:05.345Z,11.60
2023-10-26T20:27:52.123Z,10.70
2023-10-26T20:30:38.890Z,9.30
2023-10-26T20:33:25.431Z,9.00
2023-10-26T20:36:12.339Z,6.30
2023-10-26T20:38:59.269Z,7.40
2023-10-26T20:41:45.867Z,8.60
2023-10-26T20:44:32.117Z,9.40
2023-10-26T20:47:18.436Z,8.60
2023-10-26T20:50:06.372Z,7.00
2023-10-26T20:52:52.773Z,7.80
2023-10-26T20:55:39.771Z,8.40
2023-10-26T20:58:26.929Z,8.20
2023-10-26T21:01:14.773Z,6.40
2023-10-26T21:04:01.291Z,6.70
2023-10-26T21:06:48.087Z,8.20
2023-10-26T21:09:34.434Z,8.60
2023-10-26T21:12:23.163Z,7.30
2023-10-26T21:15:10.357Z,7.20
2023-10-26T21:17:57.095Z,7.00
2023-10-26T21:20:44.208Z,9.30
2023-10-26T21:23:30.916Z,6.60
2023-10-26T21:26:17.407Z,6.90
2023-10-26T21:29:03.704Z,6.60
2023-10-26T21:31:50.574Z,7.90
2023-10-26T21:34:37.132Z,6.70
2023-10-26T21:37:23.473Z,8.50
2023-10-26T21:40:12.589Z,7.80
2023-10-26T21:43:00.164Z,7.60
2023-10-26T21:45:46.628Z,8.60
2023-10-26T21:48:34.235Z,7.80
2023-10-26T21:51:20.610Z,8.70
2023-10-26T21:54:07.071Z,9.50
2023-10-26T21:56:53.777Z,10.20
2023-10-26T21:59:40.418Z,9.50
2023-10-26T22:02:26.910Z,9.50
2023-10-26T22:05:15.016Z,11.90
2023-10-26T22:08:01.845Z,10.20
2023-10-26T22:10:49.142Z,11.70
2023-10-26T22:13:35.895Z,9.50
2023-10-26T22:16:22.605Z,9.50
2023-10-26T22:19:09.598Z,11.20
2023-10-26T22:21:56.180Z,11.40
2023-10-26T22:24:42.921Z,13.40
2023-10-26T22:27:30.609Z,12.70
2023-10-26T22:30:17.180Z,13.00
2023-10-26T22:33:03.962Z,16.80
2023-10-26T22:35:50.493Z,13.50
2023-10-26T22:38:37.495Z,12.10
2023-10-26T22:41:23.831Z,12.00
2023-10-26T22:44:11.257Z,12.70
2023-10-26T22:46:57.657Z,13.00
2023-10-26T22:49:44.531Z,13.30
2023-10-26T22:52:31.339Z,13.20
2023-10-26T22:55:17.830Z,13.90
2023-10-26T22:58:04.541Z,12.70
2023-10-26T23:00:51.273Z,13.00
2023-10-26T23:03:37.730Z,15.50
2023-10-26T23:06:24.431Z,14.00
2023-10-26T23:09:14.669Z,13.70
2023-10-26T23:12:01.679Z,14.20
2023-10-26T23:14:47.872Z,14.70
2023-10-26T23:17:34.485Z,15.00
2023-10-26T23:20:21.063Z,18.40
2023-10-26T23:23:07.229Z,12.90
2023-10-26T23:25:54.251Z,15.40
2023-10-26T23:28:41.232Z,17.40
2023-10-26T23:31:27.756Z,19.50
2023-10-26T23:34:14.506Z,15.60
2023-10-26T23:37:01.446Z,17.90
2023-10-26T23:39:48.572Z,18.20
2023-10-26T23:42:35.088Z,21.00
2023-10-26T23:45:22.055Z,19.90
2023-10-26T23:48:08.532Z,21.00
2023-10-26T23:50:55.429Z,22.30
2023-10-26T23:53:42.452Z,20.60
2023-10-26T23:56:28.957Z,20.00
2023-10-26T23:59:16.220Z,20.20
